메인 페이지
METAR-TAF:

METAR-TAF

공항 :

마드리드 바라하스 국제공항

마드리드, 스페인

위도: 40-27N, 경도: 003-33W, 고도: 609m

현재 날씨관측

예보는 30분 전, 02:30시(UTC)에 발표되었습니다.
동북동6kt풍과 동남동풍을 오가는
온도 7°C
습도 53%
기압 1025 hPa
시정 10km 이상
고도 7500ft 상공 구름 보통

METAR: LEMD 190230Z 06006KT 010V120 9999 SCT075 07/M02 Q1025 NOSIG

시각: 04:00 (03:00 UTC)

예보

예보는 4 시간 0분 전, 23:00시(UTC)에 발표되었습니다.
예보 대상 시간: 19일 00시부터 20일 06시까지 (UTC)
북동7kt
시정 10km 이상
1500m 미만 상공 구름 및 적란운 없음
일시적
19일 12시부터 19일 19시까지 (UTC)
북북동18kt, 순간 최대 풍속 28kt

TAF: LEMD 182300Z 1900/2006 04007KT CAVOK TX14/1915Z TN03/1906Z TEMPO 1912/1919 03018G28KT

4,000개 이상의 공항 관측 자료 및 예보 (METAR 및 TAF 보고).

지도상에서 검색 가능한 기상관측소가 노란 점과 빨간 점으로 표시되어 있습니다.

기상관측소 명을 보려면 표시 위로 마우스를 이동하세요.

날씨 관측과 예보를 보려면 클릭하세요.

지도 변경 : 확대하려면 엑스 표시가 있는 녹색 버튼, 축소하려면 빼기 표시가 있는 녹색 버튼, 다음 페이지의 지도를 보려면 녹색 화살표를 클릭하세요.


METAR-TAF: